Isabela, Philippines
Current Conditions -  °F | °C
As of 5:00 PM on Monday 22 Dec 2014 (Local Time) from RPMZ Reporting Station
Scattered Clouds Scattered Clouds  
Wind Chill: 90°   Ceiling: Unl
Heat Index: 105°   Visibility: 6mi
Dew Point: 79°   Wind: 2mph
Humidity: 70%   Direction: 240°WSW
Pressure: 29.74"   Gusts: NA
Location:  6.7°N, 121.97°E
Report Text: RPMZ 220900Z 24002KT 9999 FEW018 SCT300 32/26 Q1007 RMK A2974
Loading
Personal Weather Stations






























Interactive Weather Map New forecast layout! Learn more

10-Day Weather Forecast

Advertisements
Track Severe Weather on mobile